sensor_id;sensor_type;location;lat;lon;timestamp;pressure;altitude;pressure_sealevel;temperature;humidity
63281;BME280;49406;51.044;3.766;2023-03-26T00:00:51;100806.16;;;8.92;100.00
63281;BME280;49406;51.044;3.766;2023-03-26T00:03:25;100798.42;;;8.89;100.00
63281;BME280;49406;51.044;3.766;2023-03-26T00:06:03;100795.96;;;8.88;100.00
63281;BME280;49406;51.044;3.766;2023-03-26T00:08:36;100794.95;;;8.89;100.00
63281;BME280;49406;51.044;3.766;2023-03-26T00:11:11;100793.17;;;8.99;100.00
63281;BME280;49406;51.044;3.766;2023-03-26T00:13:44;100790.77;;;9.03;100.00
63281;BME280;49406;51.044;3.766;2023-03-26T00:16:19;100783.28;;;9.03;100.00
63281;BME280;49406;51.044;3.766;2023-03-26T00:18:52;100782.95;;;9.04;100.00
63281;BME280;49406;51.044;3.766;2023-03-26T00:21:26;100779.81;;;9.04;100.00
63281;BME280;49406;51.044;3.766;2023-03-26T00:24:01;100774.92;;;9.05;100.00
63281;BME280;49406;51.044;3.766;2023-03-26T00:26:36;100769.65;;;9.01;100.00
63281;BME280;49406;51.044;3.766;2023-03-26T00:29:09;100771.19;;;8.98;100.00
63281;BME280;49406;51.044;3.766;2023-03-26T00:31:44;100773.25;;;8.96;100.00
63281;BME280;49406;51.044;3.766;2023-03-26T00:34:18;100772.53;;;8.93;100.00
63281;BME280;49406;51.044;3.766;2023-03-26T00:36:51;100767.30;;;8.93;100.00
63281;BME280;49406;51.044;3.766;2023-03-26T00:39:25;100770.92;;;9.04;100.00
63281;BME280;49406;51.044;3.766;2023-03-26T00:42:00;100770.42;;;9.07;100.00
63281;BME280;49406;51.044;3.766;2023-03-26T00:44:37;100772.73;;;9.08;100.00
63281;BME280;49406;51.044;3.766;2023-03-26T00:47:10;100765.02;;;9.07;100.00
63281;BME280;49406;51.044;3.766;2023-03-26T00:49:43;100760.15;;;9.07;100.00
63281;BME280;49406;51.044;3.766;2023-03-26T00:52:17;100753.98;;;9.04;100.00
63281;BME280;49406;51.044;3.766;2023-03-26T00:54:52;100743.50;;;9.01;100.00
63281;BME280;49406;51.044;3.766;2023-03-26T00:57:24;100739.09;;;9.09;100.00
63281;BME280;49406;51.044;3.766;2023-03-26T01:00:00;100731.59;;;9.09;100.00
63281;BME280;49406;51.044;3.766;2023-03-26T01:02:46;100725.98;;;9.07;100.00
63281;BME280;49406;51.044;3.766;2023-03-26T01:05:43;100725.95;;;9.06;100.00
63281;BME280;49406;51.044;3.766;2023-03-26T01:08:22;100720.69;;;9.04;100.00
63281;BME280;49406;51.044;3.766;2023-03-26T01:10:58;100711.38;;;8.97;100.00
63281;BME280;49406;51.044;3.766;2023-03-26T01:13:37;100698.16;;;8.87;100.00
63281;BME280;49406;51.044;3.766;2023-03-26T01:16:20;100693.58;;;8.83;100.00
63281;BME280;49406;51.044;3.766;2023-03-26T01:18:54;100686.98;;;8.84;100.00
63281;BME280;49406;51.044;3.766;2023-03-26T01:21:29;100682.55;;;8.79;100.00
63281;BME280;49406;51.044;3.766;2023-03-26T01:24:03;100675.11;;;8.70;100.00
63281;BME280;49406;51.044;3.766;2023-03-26T01:26:51;100674.39;;;8.68;100.00
63281;BME280;49406;51.044;3.766;2023-03-26T01:29:31;100673.81;;;8.63;100.00
63281;BME280;49406;51.044;3.766;2023-03-26T01:32:12;100668.48;;;8.56;100.00
63281;BME280;49406;51.044;3.766;2023-03-26T01:34:55;100670.15;;;8.51;100.00
63281;BME280;49406;51.044;3.766;2023-03-26T01:37:35;100669.41;;;8.48;100.00
63281;BME280;49406;51.044;3.766;2023-03-26T01:40:16;100657.58;;;8.49;100.00
63281;BME280;49406;51.044;3.766;2023-03-26T01:42:59;100652.92;;;8.53;100.00
63281;BME280;49406;51.044;3.766;2023-03-26T01:45:39;100648.37;;;8.51;100.00
63281;BME280;49406;51.044;3.766;2023-03-26T01:48:14;100645.56;;;8.50;100.00
63281;BME280;49406;51.044;3.766;2023-03-26T01:50:47;100638.59;;;8.49;100.00
63281;BME280;49406;51.044;3.766;2023-03-26T01:53:24;100634.95;;;8.50;100.00
63281;BME280;49406;51.044;3.766;2023-03-26T01:56:04;100633.19;;;8.49;100.00
63281;BME280;49406;51.044;3.766;2023-03-26T01:58:55;100626.13;;;8.41;100.00
63281;BME280;49406;51.044;3.766;2023-03-26T02:01:39;100619.95;;;8.36;100.00
63281;BME280;49406;51.044;3.766;2023-03-26T02:04:22;100613.67;;;8.37;100.00
63281;BME280;49406;51.044;3.766;2023-03-26T02:07:01;100607.69;;;8.43;100.00
63281;BME280;49406;51.044;3.766;2023-03-26T02:09:40;100606.61;;;8.41;100.00
63281;BME280;49406;51.044;3.766;2023-03-26T02:12:17;100597.72;;;8.40;100.00
63281;BME280;49406;51.044;3.766;2023-03-26T02:14:51;100589.83;;;8.37;100.00
63281;BME280;49406;51.044;3.766;2023-03-26T02:17:23;100587.73;;;8.37;100.00
63281;BME280;49406;51.044;3.766;2023-03-26T02:19:56;100577.55;;;8.33;100.00
63281;BME280;49406;51.044;3.766;2023-03-26T02:22:29;100574.55;;;8.29;100.00
63281;BME280;49406;51.044;3.766;2023-03-26T02:25:01;100566.84;;;8.26;100.00
63281;BME280;49406;51.044;3.766;2023-03-26T02:27:34;100558.08;;;8.23;100.00
63281;BME280;49406;51.044;3.766;2023-03-26T02:30:09;100554.01;;;8.31;100.00
63281;BME280;49406;51.044;3.766;2023-03-26T02:32:43;100550.02;;;8.32;100.00
63281;BME280;49406;51.044;3.766;2023-03-26T02:35:15;100541.81;;;8.30;100.00
63281;BME280;49406;51.044;3.766;2023-03-26T02:37:48;100539.38;;;8.31;100.00
63281;BME280;49406;51.044;3.766;2023-03-26T02:40:21;100529.95;;;8.28;100.00
63281;BME280;49406;51.044;3.766;2023-03-26T02:42:54;100521.59;;;8.28;100.00
63281;BME280;49406;51.044;3.766;2023-03-26T02:45:26;100516.34;;;8.27;100.00
63281;BME280;49406;51.044;3.766;2023-03-26T02:47:59;100508.44;;;8.22;100.00
63281;BME280;49406;51.044;3.766;2023-03-26T02:50:32;100502.81;;;8.18;100.00
63281;BME280;49406;51.044;3.766;2023-03-26T02:53:07;100498.08;;;8.14;100.00
63281;BME280;49406;51.044;3.766;2023-03-26T02:55:40;100486.89;;;8.11;100.00
63281;BME280;49406;51.044;3.766;2023-03-26T02:58:13;100482.95;;;8.16;100.00
63281;BME280;49406;51.044;3.766;2023-03-26T03:00:48;100476.19;;;8.19;100.00
63281;BME280;49406;51.044;3.766;2023-03-26T03:03:21;100476.16;;;8.18;100.00
63281;BME280;49406;51.044;3.766;2023-03-26T03:05:57;100474.41;;;8.16;100.00
63281;BME280;49406;51.044;3.766;2023-03-26T03:08:30;100466.04;;;8.14;100.00
63281;BME280;49406;51.044;3.766;2023-03-26T03:11:08;100459.08;;;8.13;100.00
63281;BME280;49406;51.044;3.766;2023-03-26T03:13:40;100449.64;;;8.11;100.00
63281;BME280;49406;51.044;3.766;2023-03-26T03:16:14;100447.85;;;8.07;100.00
63281;BME280;49406;51.044;3.766;2023-03-26T03:18:46;100440.82;;;8.02;100.00
63281;BME280;49406;51.044;3.766;2023-03-26T03:21:27;100437.98;;;7.98;100.00
63281;BME280;49406;51.044;3.766;2023-03-26T03:24:00;100433.43;;;7.94;100.00
63281;BME280;49406;51.044;3.766;2023-03-26T03:26:32;100424.04;;;7.96;100.00
63281;BME280;49406;51.044;3.766;2023-03-26T03:29:05;100418.89;;;8.02;100.00
63281;BME280;49406;51.044;3.766;2023-03-26T03:31:37;100406.85;;;8.01;100.00
63281;BME280;49406;51.044;3.766;2023-03-26T03:34:12;100396.75;;;8.00;100.00
63281;BME280;49406;51.044;3.766;2023-03-26T03:36:44;100385.08;;;7.99;100.00
63281;BME280;49406;51.044;3.766;2023-03-26T03:39:19;100376.19;;;7.98;100.00
63281;BME280;49406;51.044;3.766;2023-03-26T03:41:52;100372.70;;;7.97;100.00
63281;BME280;49406;51.044;3.766;2023-03-26T03:44:24;100367.80;;;7.95;100.00
63281;BME280;49406;51.044;3.766;2023-03-26T03:46:57;100363.21;;;7.90;100.00
63281;BME280;49406;51.044;3.766;2023-03-26T03:49:29;100356.54;;;7.85;100.00
63281;BME280;49406;51.044;3.766;2023-03-26T03:52:02;100354.08;;;7.82;100.00
63281;BME280;49406;51.044;3.766;2023-03-26T03:54:35;100351.63;;;7.80;100.00
63281;BME280;49406;51.044;3.766;2023-03-26T03:57:07;100343.46;;;7.82;100.00
63281;BME280;49406;51.044;3.766;2023-03-26T03:59:40;100339.41;;;7.91;100.00
63281;BME280;49406;51.044;3.766;2023-03-26T04:02:12;100330.02;;;7.92;100.00
63281;BME280;49406;51.044;3.766;2023-03-26T04:04:45;100328.64;;;7.93;100.00
63281;BME280;49406;51.044;3.766;2023-03-26T04:07:21;100325.87;;;7.95;100.00
63281;BME280;49406;51.044;3.766;2023-03-26T04:09:53;100323.08;;;7.96;100.00
63281;BME280;49406;51.044;3.766;2023-03-26T04:12:26;100319.42;;;7.95;100.00
63281;BME280;49406;51.044;3.766;2023-03-26T04:14:59;100314.34;;;7.91;100.00
63281;BME280;49406;51.044;3.766;2023-03-26T04:17:31;100314.88;;;7.92;100.00
63281;BME280;49406;51.044;3.766;2023-03-26T04:20:06;100308.45;;;7.95;100.00
63281;BME280;49406;51.044;3.766;2023-03-26T04:22:40;100304.20;;;8.04;100.00
63281;BME280;49406;51.044;3.766;2023-03-26T04:25:14;100295.70;;;8.06;100.00
63281;BME280;49406;51.044;3.766;2023-03-26T04:27:47;100289.98;;;8.09;100.00
63281;BME280;49406;51.044;3.766;2023-03-26T04:30:20;100283.55;;;8.12;100.00
63281;BME280;49406;51.044;3.766;2023-03-26T04:32:54;100277.30;;;8.13;100.00
63281;BME280;49406;51.044;3.766;2023-03-26T04:35:31;100271.18;;;8.10;100.00
63281;BME280;49406;51.044;3.766;2023-03-26T04:38:05;100268.03;;;8.08;100.00
63281;BME280;49406;51.044;3.766;2023-03-26T04:40:38;100262.67;;;8.13;100.00
63281;BME280;49406;51.044;3.766;2023-03-26T04:43:14;100259.23;;;8.21;100.00
63281;BME280;49406;51.044;3.766;2023-03-26T04:45:48;100253.66;;;8.20;100.00
63281;BME280;49406;51.044;3.766;2023-03-26T04:48:21;100249.14;;;8.21;100.00
63281;BME280;49406;51.044;3.766;2023-03-26T04:50:54;100246.20;;;8.23;100.00
63281;BME280;49406;51.044;3.766;2023-03-26T04:53:26;100241.86;;;8.23;100.00
63281;BME280;49406;51.044;3.766;2023-03-26T04:56:04;100238.16;;;8.19;100.00
63281;BME280;49406;51.044;3.766;2023-03-26T04:58:38;100229.42;;;8.14;100.00
63281;BME280;49406;51.044;3.766;2023-03-26T05:01:10;100227.01;;;8.18;100.00
63281;BME280;49406;51.044;3.766;2023-03-26T05:03:43;100219.89;;;8.22;100.00
63281;BME280;49406;51.044;3.766;2023-03-26T05:06:16;100215.71;;;8.22;100.00
63281;BME280;49406;51.044;3.766;2023-03-26T05:08:49;100214.52;;;8.23;100.00
63281;BME280;49406;51.044;3.766;2023-03-26T05:11:21;100208.21;;;8.20;100.00
63281;BME280;49406;51.044;3.766;2023-03-26T05:13:54;100204.53;;;8.15;100.00
63281;BME280;49406;51.044;3.766;2023-03-26T05:16:28;100202.09;;;8.15;100.00
63281;BME280;49406;51.044;3.766;2023-03-26T05:19:02;100198.86;;;8.24;100.00
63281;BME280;49406;51.044;3.766;2023-03-26T05:21:35;100196.61;;;8.25;100.00
63281;BME280;49406;51.044;3.766;2023-03-26T05:24:08;100192.95;;;8.24;100.00
63281;BME280;49406;51.044;3.766;2023-03-26T05:26:40;100191.05;;;8.26;100.00
63281;BME280;49406;51.044;3.766;2023-03-26T05:29:13;100188.20;;;8.22;100.00
63281;BME280;49406;51.044;3.766;2023-03-26T05:31:48;100187.14;;;8.19;100.00
63281;BME280;49406;51.044;3.766;2023-03-26T05:34:20;100181.22;;;8.18;100.00
63281;BME280;49406;51.044;3.766;2023-03-26T05:36:55;100174.33;;;8.25;100.00
63281;BME280;49406;51.044;3.766;2023-03-26T05:39:27;100175.55;;;8.27;100.00
63281;BME280;49406;51.044;3.766;2023-03-26T05:42:00;100172.41;;;8.26;100.00
63281;BME280;49406;51.044;3.766;2023-03-26T05:44:33;100169.09;;;8.24;100.00
63281;BME280;49406;51.044;3.766;2023-03-26T05:47:06;100170.77;;;8.19;100.00
63281;BME280;49406;51.044;3.766;2023-03-26T05:49:38;100165.88;;;8.16;100.00
63281;BME280;49406;51.044;3.766;2023-03-26T05:52:11;100166.23;;;8.13;100.00
63281;BME280;49406;51.044;3.766;2023-03-26T05:54:46;100164.85;;;8.17;100.00
63281;BME280;49406;51.044;3.766;2023-03-26T05:57:18;100162.78;;;8.21;100.00
63281;BME280;49406;51.044;3.766;2023-03-26T05:59:53;100164.86;;;8.21;100.00
63281;BME280;49406;51.044;3.766;2023-03-26T06:02:26;100158.05;;;8.16;100.00
63281;BME280;49406;51.044;3.766;2023-03-26T06:05:00;100151.38;;;8.07;100.00
63281;BME280;49406;51.044;3.766;2023-03-26T06:07:33;100151.51;;;8.01;100.00
63281;BME280;49406;51.044;3.766;2023-03-26T06:10:08;100151.83;;;7.98;100.00
63281;BME280;49406;51.044;3.766;2023-03-26T06:12:40;100149.60;;;8.03;100.00
63281;BME280;49406;51.044;3.766;2023-03-26T06:15:13;100151.33;;;8.02;100.00
63281;BME280;49406;51.044;3.766;2023-03-26T06:17:46;100147.48;;;7.99;100.00
63281;BME280;49406;51.044;3.766;2023-03-26T06:20:19;100144.70;;;7.97;100.00
63281;BME280;49406;51.044;3.766;2023-03-26T06:22:51;100141.20;;;7.95;100.00
63281;BME280;49406;51.044;3.766;2023-03-26T06:25:24;100141.33;;;7.90;100.00
63281;BME280;49406;51.044;3.766;2023-03-26T06:27:56;100135.54;;;7.85;100.00
63281;BME280;49406;51.044;3.766;2023-03-26T06:30:29;100133.67;;;7.90;100.00
63281;BME280;49406;51.044;3.766;2023-03-26T06:33:01;100131.22;;;7.89;100.00
63281;BME280;49406;51.044;3.766;2023-03-26T06:35:34;100134.14;;;7.85;100.00
63281;BME280;49406;51.044;3.766;2023-03-26T06:38:06;100131.88;;;7.83;100.00
63281;BME280;49406;51.044;3.766;2023-03-26T06:40:39;100125.25;;;7.82;100.00
63281;BME280;49406;51.044;3.766;2023-03-26T06:43:11;100128.52;;;7.75;100.00
63281;BME280;49406;51.044;3.766;2023-03-26T06:45:45;100124.27;;;7.68;100.00
63281;BME280;49406;51.044;3.766;2023-03-26T06:48:21;100124.31;;;7.73;100.00
63281;BME280;49406;51.044;3.766;2023-03-26T06:50:53;100120.29;;;7.71;100.00
63281;BME280;49406;51.044;3.766;2023-03-26T06:53:26;100120.60;;;7.66;100.00
63281;BME280;49406;51.044;3.766;2023-03-26T06:55:58;100120.91;;;7.62;100.00
63281;BME280;49406;51.044;3.766;2023-03-26T06:58:31;100116.91;;;7.61;100.00
63281;BME280;49406;51.044;3.766;2023-03-26T07:01:05;100114.11;;;7.60;100.00
63281;BME280;49406;51.044;3.766;2023-03-26T07:03:37;100112.52;;;7.58;100.00
63281;BME280;49406;51.044;3.766;2023-03-26T07:06:10;100110.28;;;7.58;100.00
63281;BME280;49406;51.044;3.766;2023-03-26T07:08:42;100109.05;;;7.57;100.00
63281;BME280;49406;51.044;3.766;2023-03-26T07:11:15;100109.41;;;7.59;100.00
63281;BME280;49406;51.044;3.766;2023-03-26T07:13:50;100107.11;;;7.55;100.00
63281;BME280;49406;51.044;3.766;2023-03-26T07:16:23;100104.32;;;7.54;100.00
63281;BME280;49406;51.044;3.766;2023-03-26T07:18:55;100104.03;;;7.61;100.00
63281;BME280;49406;51.044;3.766;2023-03-26T07:21:29;100100.20;;;7.59;100.00
63281;BME280;49406;51.044;3.766;2023-03-26T07:24:02;100103.16;;;7.61;100.00
63281;BME280;49406;51.044;3.766;2023-03-26T07:26:40;100102.30;;;7.61;100.00
63281;BME280;49406;51.044;3.766;2023-03-26T07:29:23;100101.09;;;7.62;100.00
63281;BME280;49406;51.044;3.766;2023-03-26T07:32:04;100102.80;;;7.59;100.00
63281;BME280;49406;51.044;3.766;2023-03-26T07:34:47;100100.67;;;7.56;100.00
63281;BME280;49406;51.044;3.766;2023-03-26T07:37:34;100099.27;;;7.53;100.00
63281;BME280;49406;51.044;3.766;2023-03-26T07:40:19;100098.38;;;7.51;100.00
63281;BME280;49406;51.044;3.766;2023-03-26T07:43:02;100092.80;;;7.50;100.00
63281;BME280;49406;51.044;3.766;2023-03-26T07:45:41;100095.73;;;7.48;100.00
63281;BME280;49406;51.044;3.766;2023-03-26T07:48:17;100093.13;;;7.46;100.00
63281;BME280;49406;51.044;3.766;2023-03-26T07:50:51;100086.34;;;7.46;100.00
63281;BME280;49406;51.044;3.766;2023-03-26T07:53:24;100087.73;;;7.47;100.00
63281;BME280;49406;51.044;3.766;2023-03-26T07:56:04;100086.51;;;7.44;100.00
63281;BME280;49406;51.044;3.766;2023-03-26T07:58:48;100088.42;;;7.45;100.00
63281;BME280;49406;51.044;3.766;2023-03-26T08:01:34;100080.95;;;7.46;100.00
63281;BME280;49406;51.044;3.766;2023-03-26T08:07:14;100085.98;;;7.44;100.00
63281;BME280;49406;51.044;3.766;2023-03-26T08:09:58;100086.67;;;7.43;100.00
63281;BME280;49406;51.044;3.766;2023-03-26T08:12:43;100085.61;;;7.42;100.00
63281;BME280;49406;51.044;3.766;2023-03-26T08:15:23;100083.53;;;7.41;100.00
63281;BME280;49406;51.044;3.766;2023-03-26T08:18:19;100085.45;;;7.42;100.00
63281;BME280;49406;51.044;3.766;2023-03-26T08:21:02;100086.68;;;7.44;100.00
63281;BME280;49406;51.044;3.766;2023-03-26T08:23:46;100086.15;;;7.44;100.00
63281;BME280;49406;51.044;3.766;2023-03-26T08:26:28;100083.04;;;7.47;100.00
63281;BME280;49406;51.044;3.766;2023-03-26T08:29:12;100083.23;;;7.49;100.00
63281;BME280;49406;51.044;3.766;2023-03-26T08:31:49;100080.80;;;7.49;100.00
63281;BME280;49406;51.044;3.766;2023-03-26T08:34:22;100085.49;;;7.49;100.00
63281;BME280;49406;51.044;3.766;2023-03-26T08:36:54;100084.98;;;7.49;100.00
63281;BME280;49406;51.044;3.766;2023-03-26T08:39:27;100086.52;;;7.46;100.00
63281;BME280;49406;51.044;3.766;2023-03-26T08:42:33;100086.17;;;7.47;100.00
63281;BME280;49406;51.044;3.766;2023-03-26T08:51:56;100090.10;;;7.57;100.00
63281;BME280;49406;51.044;3.766;2023-03-26T08:54:45;100091.15;;;7.58;100.00
63281;BME280;49406;51.044;3.766;2023-03-26T08:57:46;100091.67;;;7.59;100.00
63281;BME280;49406;51.044;3.766;2023-03-26T09:00:53;100097.05;;;7.57;100.00
63281;BME280;49406;51.044;3.766;2023-03-26T09:10:16;100104.46;;;7.51;100.00
63281;BME280;49406;51.044;3.766;2023-03-26T09:16:26;100113.81;;;7.45;100.00
63281;BME280;49406;51.044;3.766;2023-03-26T09:19:32;100118.33;;;7.45;100.00
63281;BME280;49406;51.044;3.766;2023-03-26T09:25:40;100123.01;;;7.43;100.00
63281;BME280;49406;51.044;3.766;2023-03-26T09:28:44;100124.61;;;7.46;100.00
63281;BME280;49406;51.044;3.766;2023-03-26T09:31:44;100128.62;;;7.49;100.00
63281;BME280;49406;51.044;3.766;2023-03-26T09:34:31;100127.42;;;7.51;100.00
63281;BME280;49406;51.044;3.766;2023-03-26T09:37:24;100132.19;;;7.57;100.00
63281;BME280;49406;51.044;3.766;2023-03-26T09:40:10;100133.09;;;7.61;100.00
63281;BME280;49406;51.044;3.766;2023-03-26T09:42:52;100138.67;;;7.64;100.00
63281;BME280;49406;51.044;3.766;2023-03-26T09:45:40;100139.39;;;7.66;100.00
63281;BME280;49406;51.044;3.766;2023-03-26T09:51:39;100146.00;;;7.68;100.00
63281;BME280;49406;51.044;3.766;2023-03-26T09:54:42;100148.27;;;7.68;100.00
63281;BME280;49406;51.044;3.766;2023-03-26T09:57:41;100150.37;;;7.69;100.00
63281;BME280;49406;51.044;3.766;2023-03-26T10:00:27;100155.99;;;7.74;100.00
63281;BME280;49406;51.044;3.766;2023-03-26T10:03:18;100162.64;;;7.79;100.00
63281;BME280;49406;51.044;3.766;2023-03-26T10:06:19;100164.59;;;7.83;100.00
63281;BME280;49406;51.044;3.766;2023-03-26T10:09:11;100168.43;;;7.85;100.00
63281;BME280;49406;51.044;3.766;2023-03-26T10:11:57;100171.29;;;7.92;100.00
63281;BME280;49406;51.044;3.766;2023-03-26T10:14:39;100174.80;;;7.98;100.00
63281;BME280;49406;51.044;3.766;2023-03-26T10:17:32;100180.56;;;8.01;100.00
63281;BME280;49406;51.044;3.766;2023-03-26T10:20:26;100183.57;;;8.06;100.00
63281;BME280;49406;51.044;3.766;2023-03-26T10:23:14;100187.98;;;8.14;100.00
63281;BME280;49406;51.044;3.766;2023-03-26T10:26:08;100195.50;;;8.21;100.00
63281;BME280;49406;51.044;3.766;2023-03-26T10:29:05;100196.55;;;8.20;100.00
63281;BME280;49406;51.044;3.766;2023-03-26T10:31:43;100200.73;;;8.20;100.00
63281;BME280;49406;51.044;3.766;2023-03-26T10:34:34;100201.94;;;8.18;100.00
63281;BME280;49406;51.044;3.766;2023-03-26T10:37:14;100205.00;;;8.30;100.00
63281;BME280;49406;51.044;3.766;2023-03-26T10:40:08;100208.40;;;8.40;100.00
63281;BME280;49406;51.044;3.766;2023-03-26T10:49:32;100222.04;;;8.73;100.00
63281;BME280;49406;51.044;3.766;2023-03-26T10:52:09;100227.46;;;8.75;100.00
63281;BME280;49406;51.044;3.766;2023-03-26T10:54:52;100231.30;;;8.77;100.00
63281;BME280;49406;51.044;3.766;2023-03-26T10:57:36;100234.81;;;8.84;100.00
63281;BME280;49406;51.044;3.766;2023-03-26T11:00:16;100239.25;;;9.01;100.00
63281;BME280;49406;51.044;3.766;2023-03-26T11:03:09;100241.93;;;9.10;100.00
63281;BME280;49406;51.044;3.766;2023-03-26T11:05:53;100245.10;;;9.21;100.00
63281;BME280;49406;51.044;3.766;2023-03-26T11:08:36;100244.84;;;9.42;100.00
63281;BME280;49406;51.044;3.766;2023-03-26T11:11:18;100252.88;;;9.45;100.00
63281;BME280;49406;51.044;3.766;2023-03-26T11:13:58;100254.09;;;9.44;100.00
63281;BME280;49406;51.044;3.766;2023-03-26T11:16:44;100257.59;;;9.52;100.00
63281;BME280;49406;51.044;3.766;2023-03-26T11:19:26;100259.52;;;9.56;100.00
63281;BME280;49406;51.044;3.766;2023-03-26T11:22:07;100265.84;;;9.67;100.00
63281;BME280;49406;51.044;3.766;2023-03-26T11:24:57;100267.38;;;9.53;100.00
63281;BME280;49406;51.044;3.766;2023-03-26T11:27:43;100267.72;;;9.55;100.00
63281;BME280;49406;51.044;3.766;2023-03-26T11:30:25;100275.05;;;9.56;100.00
63281;BME280;49406;51.044;3.766;2023-03-26T11:33:01;100276.13;;;9.58;100.00
63281;BME280;49406;51.044;3.766;2023-03-26T11:35:40;100283.64;;;9.62;100.00
63281;BME280;49406;51.044;3.766;2023-03-26T11:38:20;100290.24;;;9.55;100.00
63281;BME280;49406;51.044;3.766;2023-03-26T11:40:56;100296.67;;;9.47;100.00
63281;BME280;49406;51.044;3.766;2023-03-26T11:43:34;100296.14;;;9.45;100.00
63281;BME280;49406;51.044;3.766;2023-03-26T11:46:10;100303.95;;;9.36;100.00
63281;BME280;49406;51.044;3.766;2023-03-26T11:48:45;100308.33;;;9.40;100.00
63281;BME280;49406;51.044;3.766;2023-03-26T11:51:24;100308.88;;;9.43;100.00
63281;BME280;49406;51.044;3.766;2023-03-26T11:53:58;100312.14;;;9.38;100.00
63281;BME280;49406;51.044;3.766;2023-03-26T11:56:33;100316.67;;;9.35;100.00
63281;BME280;49406;51.044;3.766;2023-03-26T11:59:11;100317.89;;;9.33;100.00
63281;BME280;49406;51.044;3.766;2023-03-26T12:01:49;100322.44;;;9.37;100.00
63281;BME280;49406;51.044;3.766;2023-03-26T12:04:27;100324.18;;;9.36;100.00
63281;BME280;49406;51.044;3.766;2023-03-26T12:07:11;100331.84;;;9.29;100.00
63281;BME280;49406;51.044;3.766;2023-03-26T12:09:51;100334.74;;;9.22;100.00
63281;BME280;49406;51.044;3.766;2023-03-26T12:12:25;100334.06;;;9.24;100.00
63281;BME280;49406;51.044;3.766;2023-03-26T12:14:59;100334.98;;;9.33;100.00
63281;BME280;49406;51.044;3.766;2023-03-26T12:17:33;100339.77;;;9.47;100.00
63281;BME280;49406;51.044;3.766;2023-03-26T12:20:28;100343.44;;;9.48;100.00
63281;BME280;49406;51.044;3.766;2023-03-26T12:23:03;100348.31;;;9.46;100.00
63281;BME280;49406;51.044;3.766;2023-03-26T12:25:37;100352.11;;;9.40;100.00
63281;BME280;49406;51.044;3.766;2023-03-26T12:28:18;100354.08;;;9.48;100.00
63281;BME280;49406;51.044;3.766;2023-03-26T12:31:00;100359.05;;;9.66;100.00
63281;BME280;49406;51.044;3.766;2023-03-26T12:33:34;100364.33;;;9.76;100.00
63281;BME280;49406;51.044;3.766;2023-03-26T12:36:21;100367.96;;;9.71;100.00
63281;BME280;49406;51.044;3.766;2023-03-26T12:38:57;100377.86;;;9.58;100.00
63281;BME280;49406;51.044;3.766;2023-03-26T12:41:39;100380.60;;;9.49;100.00
63281;BME280;49406;51.044;3.766;2023-03-26T12:44:22;100382.86;;;9.45;100.00
63281;BME280;49406;51.044;3.766;2023-03-26T12:47:09;100392.47;;;9.49;100.00
63281;BME280;49406;51.044;3.766;2023-03-26T12:49:42;100392.40;;;9.38;100.00
63281;BME280;49406;51.044;3.766;2023-03-26T12:55:29;100399.88;;;9.30;100.00
63281;BME280;49406;51.044;3.766;2023-03-26T13:01:09;100400.38;;;9.26;100.00
63281;BME280;49406;51.044;3.766;2023-03-26T13:04:03;100403.44;;;9.19;100.00
63281;BME280;49406;51.044;3.766;2023-03-26T13:06:41;100404.30;;;9.15;100.00
63281;BME280;49406;51.044;3.766;2023-03-26T13:09:37;100409.35;;;9.14;100.00
63281;BME280;49406;51.044;3.766;2023-03-26T13:12:23;100408.94;;;9.05;100.00
63281;BME280;49406;51.044;3.766;2023-03-26T13:15:15;100412.86;;;8.93;100.00
63281;BME280;49406;51.044;3.766;2023-03-26T13:17:57;100417.46;;;8.82;100.00
63281;BME280;49406;51.044;3.766;2023-03-26T13:20:47;100423.27;;;8.69;100.00
63281;BME280;49406;51.044;3.766;2023-03-26T13:23:30;100424.79;;;8.61;100.00
63281;BME280;49406;51.044;3.766;2023-03-26T13:26:13;100428.09;;;8.61;100.00
63281;BME280;49406;51.044;3.766;2023-03-26T13:28:49;100430.05;;;8.67;100.00
63281;BME280;49406;51.044;3.766;2023-03-26T13:31:29;100434.59;;;8.68;100.00
63281;BME280;49406;51.044;3.766;2023-03-26T13:34:11;100435.13;;;8.70;100.00
63281;BME280;49406;51.044;3.766;2023-03-26T13:36:54;100436.86;;;8.68;100.00
63281;BME280;49406;51.044;3.766;2023-03-26T13:39:38;100439.80;;;8.65;100.00
63281;BME280;49406;51.044;3.766;2023-03-26T13:42:29;100443.27;;;8.66;100.00
63281;BME280;49406;51.044;3.766;2023-03-26T13:45:21;100450.02;;;8.79;100.00
63281;BME280;49406;51.044;3.766;2023-03-26T13:47:59;100452.34;;;8.83;100.00
63281;BME280;49406;51.044;3.766;2023-03-26T13:50:37;100452.00;;;8.86;100.00
63281;BME280;49406;51.044;3.766;2023-03-26T13:53:15;100458.64;;;8.88;100.00
63281;BME280;49406;51.044;3.766;2023-03-26T13:55:53;100456.88;;;8.85;100.00
63281;BME280;49406;51.044;3.766;2023-03-26T13:58:33;100464.19;;;8.84;100.00
63281;BME280;49406;51.044;3.766;2023-03-26T14:01:09;100465.25;;;8.87;100.00
63281;BME280;49406;51.044;3.766;2023-03-26T14:03:52;100468.95;;;8.89;100.00
63281;BME280;49406;51.044;3.766;2023-03-26T14:06:33;100469.93;;;8.83;100.00
63281;BME280;49406;51.044;3.766;2023-03-26T14:09:17;100476.22;;;8.84;100.00
63281;BME280;49406;51.044;3.766;2023-03-26T14:12:10;100479.88;;;8.83;100.00
63281;BME280;49406;51.044;3.766;2023-03-26T14:14:47;100481.42;;;8.80;100.00
63281;BME280;49406;51.044;3.766;2023-03-26T14:17:24;100480.36;;;8.78;100.00
63281;BME280;49406;51.044;3.766;2023-03-26T14:20:19;100488.38;;;8.77;100.00
63281;BME280;49406;51.044;3.766;2023-03-26T14:23:10;100490.80;;;8.76;100.00
63281;BME280;49406;51.044;3.766;2023-03-26T14:25:55;100494.47;;;8.77;100.00
63281;BME280;49406;51.044;3.766;2023-03-26T14:29:01;100499.54;;;8.80;100.00